Time;durP1;ratioP1;P1;durP2;ratioP2;P2;SDS_P1;SDS_P2;PMS_P1;PMS_P2;Temp;Humidity;BMP_temperature;BMP_pressure;BME280_temperature;BME280_humidity;BME280_pressure;Samples;Min_cycle;Max_cycle;Signal;HPM_P1;HPM_P2
2022/07/06 00:01:55;;;;;;;1.10;0.30;;;13.50;95.10;;;;;;5029123;28;20047;-79
2022/07/06 00:04:21;;;;;;;1.13;0.30;;;13.50;95.60;;;;;;5004420;28;20395;-79
2022/07/06 00:06:48;;;;;;;1.55;0.40;;;13.50;95.70;;;;;;5033050;28;20613;-78
2022/07/06 00:09:14;;;;;;;1.25;0.30;;;13.50;95.80;;;;;;5031841;28;20045;-78
2022/07/06 00:11:40;;;;;;;1.65;0.30;;;13.50;96.00;;;;;;5028968;28;20044;-79
2022/07/06 00:14:07;;;;;;;1.27;0.30;;;13.40;96.40;;;;;;5033400;28;20036;-78
2022/07/06 00:16:33;;;;;;;2.42;0.40;;;13.50;96.40;;;;;;5016136;28;20033;-78
2022/07/06 00:19:00;;;;;;;1.50;0.20;;;13.40;96.50;;;;;;5032977;28;20067;-79
2022/07/06 00:21:26;;;;;;;2.45;0.40;;;13.40;96.80;;;;;;5029162;28;20048;-79
2022/07/06 00:23:52;;;;;;;1.42;0.20;;;13.40;97.30;;;;;;5016932;28;20682;-78
2022/07/06 00:26:20;;;;;;;2.63;0.20;;;13.40;97.20;;;;;;5006122;28;20052;-78
2022/07/06 00:28:46;;;;;;;2.08;0.30;;;13.40;97.30;;;;;;4990031;28;20524;-79
2022/07/06 00:31:13;;;;;;;1.02;0.30;;;13.40;97.60;;;;;;5027337;28;20047;-79
2022/07/06 00:33:39;;;;;;;1.92;0.40;;;13.40;97.80;;;;;;5033466;28;20037;-78
2022/07/06 00:36:06;;;;;;;2.75;0.30;;;13.40;98.10;;;;;;5032495;28;20036;-79
2022/07/06 00:38:32;;;;;;;1.75;0.40;;;13.40;98.60;;;;;;5034724;28;20483;-78
2022/07/06 00:40:59;;;;;;;4.10;0.40;;;13.40;98.50;;;;;;5031540;28;20048;-79
2022/07/06 00:43:25;;;;;;;1.30;0.25;;;13.40;98.80;;;;;;5034765;28;20041;-78
2022/07/06 00:45:52;;;;;;;1.92;0.32;;;13.40;99.00;;;;;;5048668;28;20068;-79
2022/07/06 00:48:18;;;;;;;1.48;0.40;;;13.40;99.30;;;;;;5032953;28;20457;-78
2022/07/06 00:50:44;;;;;;;3.38;0.40;;;13.40;99.60;;;;;;5018562;28;20088;-79
2022/07/06 00:53:12;;;;;;;1.58;0.30;;;13.40;99.90;;;;;;5017435;28;20025;-79
2022/07/06 00:55:39;;;;;;;2.30;0.40;;;13.40;99.90;;;;;;5045444;28;20041;-78
2022/07/06 00:58:07;;;;;;;3.67;0.40;;;13.40;99.90;;;;;;5034808;28;20021;-78
2022/07/06 01:00:34;;;;;;;1.65;0.35;;;13.40;99.90;;;;;;5028706;28;20396;-78
2022/07/06 01:03:01;;;;;;;5.68;0.50;;;13.40;99.90;;;;;;5017351;28;20136;-79
2022/07/06 01:05:29;;;;;;;1.10;0.30;;;13.40;99.90;;;;;;5018342;28;21374;-79
2022/07/06 01:07:56;;;;;;;2.42;0.40;;;13.40;99.90;;;;;;5014047;28;20404;-78
2022/07/06 01:10:23;;;;;;;1.05;0.35;;;13.40;99.90;;;;;;5030210;28;20388;-78
2022/07/06 01:12:50;;;;;;;4.10;0.43;;;13.30;99.90;;;;;;5034124;28;20037;-78
2022/07/06 01:15:22;;;;;;;6.03;0.68;;;13.30;99.90;;;;;;5034900;28;20036;-78
2022/07/06 01:17:50;;;;;;;1.70;0.30;;;13.30;99.90;;;;;;5018108;28;20032;-78
2022/07/06 01:20:19;;;;;;;3.60;0.40;;;13.30;99.90;;;;;;5030854;28;20037;-78
2022/07/06 01:22:48;;;;;;;2.33;0.50;;;13.30;99.90;;;;;;5033445;28;20016;-79
2022/07/06 01:25:15;;;;;;;2.08;0.43;;;13.30;99.90;;;;;;5015774;28;20032;-75
2022/07/06 01:27:42;;;;;;;2.25;0.40;;;13.30;99.90;;;;;;4995781;28;20048;-75
2022/07/06 01:30:11;;;;;;;1.15;0.38;;;13.30;99.90;;;;;;5008296;28;20040;-75
2022/07/06 01:32:38;;;;;;;3.28;0.50;;;13.20;99.90;;;;;;5009082;28;20055;-75
2022/07/06 01:35:10;;;;;;;2.85;0.40;;;13.20;99.90;;;;;;5018081;28;20485;-75
2022/07/06 01:37:37;;;;;;;1.40;0.30;;;13.20;99.90;;;;;;5029415;28;20468;-75
2022/07/06 01:40:06;;;;;;;1.65;0.32;;;13.20;99.90;;;;;;5009332;28;20041;-75
2022/07/06 01:42:34;;;;;;;2.30;0.30;;;13.20;99.90;;;;;;5029331;28;20033;-75
2022/07/06 01:45:00;;;;;;;2.58;0.40;;;13.20;99.90;;;;;;4994897;28;20079;-75
2022/07/06 01:47:27;;;;;;;1.25;0.30;;;13.20;99.90;;;;;;5011536;28;20052;-75
2022/07/06 01:49:54;;;;;;;1.50;0.30;;;13.20;99.90;;;;;;5025124;28;20400;-76
2022/07/06 01:52:22;;;;;;;1.67;0.30;;;13.10;99.90;;;;;;5011913;28;20059;-75
2022/07/06 01:54:49;;;;;;;1.98;0.30;;;13.20;99.90;;;;;;5030860;28;20025;-76
2022/07/06 01:57:15;;;;;;;1.50;0.38;;;13.20;99.90;;;;;;5029131;28;20465;-75
2022/07/06 01:59:42;;;;;;;1.70;0.30;;;13.20;99.90;;;;;;4995846;28;20036;-76
2022/07/06 02:02:08;;;;;;;3.08;0.43;;;13.10;99.90;;;;;;5013238;28;20029;-75
2022/07/06 02:04:35;;;;;;;3.13;0.40;;;13.10;99.90;;;;;;5012003;28;20028;-75
2022/07/06 02:07:01;;;;;;;1.40;0.30;;;13.10;99.90;;;;;;5016977;28;20025;-75
2022/07/06 02:09:28;;;;;;;4.25;0.50;;;13.10;99.90;;;;;;4986990;28;20724;-76
2022/07/06 02:11:55;;;;;;;4.72;0.50;;;13.10;99.90;;;;;;5014298;28;20040;-76
2022/07/06 02:14:21;;;;;;;2.85;0.73;;;13.10;99.90;;;;;;5004266;28;20044;-75
2022/07/06 02:16:48;;;;;;;1.95;0.35;;;13.00;99.90;;;;;;5032866;28;20044;-75
2022/07/06 02:19:17;;;;;;;3.90;0.40;;;13.10;99.90;;;;;;5015646;28;20029;-75
2022/07/06 02:21:45;;;;;;;3.38;0.40;;;13.00;99.90;;;;;;5014905;28;20032;-75
2022/07/06 02:24:12;;;;;;;1.63;0.40;;;13.00;99.90;;;;;;5032021;28;20052;-75
2022/07/06 02:26:40;;;;;;;2.45;0.47;;;13.00;99.90;;;;;;4998290;28;20037;-75
2022/07/06 02:29:07;;;;;;;4.38;0.47;;;13.00;99.90;;;;;;5016208;28;20032;-75
2022/07/06 02:31:34;;;;;;;1.75;0.30;;;13.00;99.90;;;;;;4997533;28;20028;-75
2022/07/06 02:34:00;;;;;;;1.23;0.43;;;13.00;99.90;;;;;;5032203;28;20045;-75
2022/07/06 02:36:27;;;;;;;2.78;0.30;;;13.00;99.90;;;;;;5016226;28;20032;-76
2022/07/06 02:38:53;;;;;;;2.08;0.32;;;13.00;99.90;;;;;;5033343;28;20033;-75
2022/07/06 02:41:20;;;;;;;3.72;0.80;;;13.00;99.90;;;;;;4995663;28;20048;-76
2022/07/06 02:43:47;;;;;;;3.40;0.70;;;13.00;99.90;;;;;;5033133;28;20033;-75
2022/07/06 02:46:13;;;;;;;2.25;0.45;;;13.00;99.90;;;;;;5016394;28;20044;-75
2022/07/06 02:48:41;;;;;;;2.55;0.30;;;13.00;99.90;;;;;;5018219;28;20060;-75
2022/07/06 02:51:08;;;;;;;4.07;0.30;;;13.00;99.90;;;;;;5004228;28;20048;-75
2022/07/06 02:53:35;;;;;;;1.75;0.32;;;13.00;99.90;;;;;;5034528;28;20036;-76
2022/07/06 02:56:01;;;;;;;2.38;0.38;;;13.00;99.90;;;;;;5035994;28;20029;-75
2022/07/06 02:58:28;;;;;;;4.30;0.40;;;13.00;99.90;;;;;;5007135;28;20048;-76
2022/07/06 03:00:56;;;;;;;1.52;0.30;;;13.00;99.90;;;;;;4989487;28;20044;-76
2022/07/06 03:03:22;;;;;;;2.42;0.30;;;13.00;99.90;;;;;;5019053;28;20033;-75
2022/07/06 03:05:49;;;;;;;4.05;0.40;;;13.00;99.90;;;;;;5041051;28;20033;-75
2022/07/06 03:08:17;;;;;;;1.92;0.30;;;13.00;99.90;;;;;;5018558;28;20388;-75
2022/07/06 03:10:43;;;;;;;1.25;0.65;;;13.00;99.90;;;;;;5029351;28;22064;-75
2022/07/06 03:13:10;;;;;;;3.10;0.30;;;13.00;99.90;;;;;;5018530;28;20044;-75
2022/07/06 03:15:37;;;;;;;1.15;0.20;;;13.00;99.90;;;;;;5015926;28;20043;-75
2022/07/06 03:18:04;;;;;;;1.30;0.30;;;13.00;99.90;;;;;;5018193;28;20673;-75
2022/07/06 03:20:31;;;;;;;2.38;0.30;;;13.00;99.90;;;;;;5020028;28;20072;-75
2022/07/06 03:22:57;;;;;;;4.13;0.45;;;13.00;99.90;;;;;;5037087;28;20047;-75
2022/07/06 03:25:24;;;;;;;3.10;0.40;;;13.10;99.90;;;;;;5003385;28;20608;-76
2022/07/06 03:27:51;;;;;;;2.30;0.30;;;13.10;99.90;;;;;;5018325;28;20032;-75
2022/07/06 03:30:19;;;;;;;0.90;0.25;;;13.20;99.90;;;;;;5001686;28;20033;-75
2022/07/06 03:32:50;;;;;;;1.35;0.30;;;13.30;99.90;;;;;;4998646;28;20036;-75
2022/07/06 03:35:19;;;;;;;1.88;0.28;;;13.30;99.90;;;;;;5014579;28;20033;-75
2022/07/06 03:37:47;;;;;;;2.28;0.20;;;13.40;99.90;;;;;;5014330;28;20033;-75
2022/07/06 03:40:15;;;;;;;3.17;0.43;;;13.40;99.90;;;;;;5027458;28;20045;-75
2022/07/06 03:42:43;;;;;;;3.45;0.40;;;13.50;99.90;;;;;;5029374;28;20040;-75
2022/07/06 03:45:11;;;;;;;2.63;0.50;;;13.50;99.90;;;;;;5014810;28;20044;-76
2022/07/06 03:47:38;;;;;;;1.38;0.30;;;13.60;99.90;;;;;;5032086;28;20041;-75
2022/07/06 03:50:05;;;;;;;5.13;0.40;;;13.60;99.90;;;;;;5026751;28;20045;-76
2022/07/06 03:52:34;;;;;;;3.58;0.30;;;13.60;99.90;;;;;;5028854;28;21511;-75
2022/07/06 03:55:00;;;;;;;1.92;0.28;;;13.60;99.90;;;;;;5029464;28;20488;-75
2022/07/06 03:57:29;;;;;;;2.65;0.40;;;13.70;99.90;;;;;;5012716;28;20044;-75
2022/07/06 03:59:59;;;;;;;2.83;0.50;;;13.70;99.90;;;;;;5027747;28;21289;-75
2022/07/06 04:02:27;;;;;;;3.85;1.13;;;13.80;99.90;;;;;;5011914;28;20037;-75
2022/07/06 04:04:54;;;;;;;1.45;0.20;;;13.80;99.90;;;;;;5030762;28;20040;-75
2022/07/06 04:07:21;;;;;;;0.90;0.30;;;13.80;99.90;;;;;;4995490;28;20050;-75
2022/07/06 04:09:49;;;;;;;1.77;0.30;;;13.80;99.90;;;;;;5009752;28;20051;-76
2022/07/06 04:12:15;;;;;;;3.22;0.77;;;13.80;99.90;;;;;;4979960;28;20045;-75
2022/07/06 04:14:43;;;;;;;2.83;0.30;;;13.80;99.90;;;;;;4996847;28;20396;-75
2022/07/06 04:19:55;;;;;;;2.20;0.30;;;13.80;99.90;;;;;;5015163;28;20036;-76
2022/07/06 04:22:21;;;;;;;2.05;0.30;;;13.90;99.90;;;;;;5026383;28;21297;-75
2022/07/06 04:24:48;;;;;;;2.20;0.30;;;13.90;99.90;;;;;;5011741;28;20044;-76
2022/07/06 04:27:17;;;;;;;1.40;0.30;;;13.90;99.90;;;;;;5012484;28;20051;-76
2022/07/06 04:29:44;;;;;;;2.15;0.30;;;14.00;99.90;;;;;;5009100;28;20136;-75
2022/07/06 04:32:10;;;;;;;2.05;0.40;;;14.00;99.90;;;;;;5025289;28;20048;-75
2022/07/06 04:34:37;;;;;;;1.30;0.30;;;14.10;99.90;;;;;;5028630;28;20032;-75
2022/07/06 04:37:04;;;;;;;3.22;0.40;;;14.20;99.90;;;;;;5001979;28;20049;-76
2022/07/06 04:39:31;;;;;;;3.03;0.30;;;14.30;99.90;;;;;;4999125;28;20420;-75
2022/07/06 04:41:58;;;;;;;2.08;0.30;;;14.40;99.90;;;;;;4996488;28;20536;-76
2022/07/06 04:44:24;;;;;;;3.95;0.40;;;14.50;99.90;;;;;;4999832;28;20686;-76
2022/07/06 04:46:51;;;;;;;3.95;0.35;;;14.60;99.90;;;;;;5007310;28;20053;-75
2022/07/06 04:49:18;;;;;;;0.57;0.20;;;14.70;99.90;;;;;;4979260;28;20041;-75
2022/07/06 04:51:44;;;;;;;4.50;0.40;;;14.80;99.90;;;;;;4976435;28;20055;-75
2022/07/06 04:54:11;;;;;;;3.50;0.30;;;14.80;99.90;;;;;;5012252;28;20043;-76
2022/07/06 04:56:38;;;;;;;0.85;0.30;;;15.00;99.90;;;;;;4992403;28;20088;-76
2022/07/06 04:59:05;;;;;;;2.50;0.30;;;15.20;99.90;;;;;;4983661;28;20058;-76
2022/07/06 05:01:32;;;;;;;0.93;0.30;;;15.40;99.90;;;;;;4982316;28;20048;-76
2022/07/06 05:03:59;;;;;;;2.15;0.30;;;15.60;99.90;;;;;;4999430;28;20237;-76
2022/07/06 05:06:26;;;;;;;2.00;0.30;;;15.70;99.90;;;;;;4982252;28;20029;-76
2022/07/06 05:08:52;;;;;;;1.75;0.20;;;15.80;99.90;;;;;;4970386;28;20059;-76
2022/07/06 05:11:20;;;;;;;1.65;0.30;;;15.90;99.90;;;;;;4994122;28;20029;-75
2022/07/06 05:13:48;;;;;;;1.77;0.20;;;16.00;99.90;;;;;;5013985;28;20047;-76
2022/07/06 05:16:14;;;;;;;2.13;0.30;;;15.90;99.90;;;;;;5012287;28;20511;-76
2022/07/06 05:18:41;;;;;;;0.80;0.25;;;15.80;99.90;;;;;;4998578;28;20036;-76
2022/07/06 05:21:08;;;;;;;2.63;0.45;;;15.70;99.90;;;;;;5006903;28;20041;-75
2022/07/06 05:23:34;;;;;;;4.65;0.30;;;15.70;99.90;;;;;;5012990;28;20604;-75
2022/07/06 05:26:02;;;;;;;1.05;0.28;;;15.60;99.90;;;;;;4998150;28;20048;-75
2022/07/06 05:28:30;;;;;;;2.75;0.20;;;15.60;99.90;;;;;;5014023;28;20376;-75
2022/07/06 05:30:57;;;;;;;2.17;0.30;;;15.60;99.90;;;;;;4992545;28;20041;-76
2022/07/06 05:33:24;;;;;;;3.30;0.50;;;15.60;99.90;;;;;;4997207;28;20485;-75
2022/07/06 05:35:50;;;;;;;1.60;0.30;;;15.70;99.90;;;;;;5013462;28;20037;-76
2022/07/06 05:38:19;;;;;;;0.85;0.20;;;15.70;99.90;;;;;;4996102;28;20040;-76
2022/07/06 05:40:45;;;;;;;3.58;0.88;;;15.70;99.90;;;;;;5009364;28;20034;-75
2022/07/06 05:43:12;;;;;;;0.80;0.28;;;15.70;99.90;;;;;;5034334;28;20040;-75
2022/07/06 05:45:39;;;;;;;3.85;0.30;;;15.80;99.90;;;;;;5016778;28;20056;-75
2022/07/06 05:50:51;;;;;;;3.92;0.45;;;16.00;99.90;;;;;;5028229;28;20599;-75
2022/07/06 05:53:17;;;;;;;1.63;0.30;;;16.00;99.90;;;;;;5017798;28;20037;-75
2022/07/06 05:55:46;;;;;;;2.90;0.30;;;16.10;99.90;;;;;;5001018;28;20117;-75
2022/07/06 05:58:13;;;;;;;1.40;0.30;;;16.10;99.90;;;;;;5017821;28;20500;-75
2022/07/06 06:00:41;;;;;;;2.10;0.52;;;16.20;99.90;;;;;;5028889;28;20036;-75
2022/07/06 06:03:13;;;;;;;1.10;0.30;;;16.20;99.90;;;;;;5001989;28;20047;-75
2022/07/06 06:05:41;;;;;;;1.95;0.30;;;16.10;99.90;;;;;;4985464;28;20055;-78
2022/07/06 06:08:09;;;;;;;1.55;0.20;;;16.10;99.90;;;;;;5034171;28;20047;-75
2022/07/06 06:10:36;;;;;;;1.95;0.30;;;16.40;99.90;;;;;;5026867;28;20522;-76
2022/07/06 06:13:06;;;;;;;1.95;0.50;;;16.80;99.90;;;;;;5018208;28;20045;-75
2022/07/06 06:15:34;;;;;;;2.90;0.40;;;17.00;99.90;;;;;;5032738;28;20029;-77
2022/07/06 06:18:03;;;;;;;1.25;0.30;;;17.20;99.90;;;;;;5017312;28;20045;-75
2022/07/06 06:20:30;;;;;;;1.75;0.30;;;17.60;99.90;;;;;;5029623;28;20633;-76
2022/07/06 06:22:58;;;;;;;2.15;0.50;;;17.90;99.90;;;;;;5015673;28;20368;-76
2022/07/06 06:25:40;;;;;;;1.58;0.40;;;18.10;99.90;;;;;;5016246;28;20075;-77
2022/07/06 06:28:10;;;;;;;1.67;0.30;;;18.20;99.90;;;;;;5032666;28;20032;-74
2022/07/06 06:30:37;;;;;;;3.30;0.50;;;18.30;99.90;;;;;;5010293;28;20028;-74
2022/07/06 06:33:10;;;;;;;0.77;0.30;;;18.60;99.90;;;;;;5035323;28;20035;-74
2022/07/06 06:35:37;;;;;;;2.75;0.60;;;19.00;99.70;;;;;;5031617;28;20036;-77
2022/07/06 06:38:03;;;;;;;0.77;0.20;;;19.20;99.10;;;;;;5031752;28;20013;-77
2022/07/06 06:40:30;;;;;;;1.83;0.40;;;19.40;98.70;;;;;;5025912;28;20040;-77
2022/07/06 06:42:56;;;;;;;2.33;0.40;;;19.40;98.50;;;;;;5017572;28;20040;-76
2022/07/06 06:45:24;;;;;;;1.38;0.20;;;19.40;98.60;;;;;;5034298;28;20055;-75
2022/07/06 06:47:50;;;;;;;1.65;0.30;;;19.50;98.20;;;;;;5031499;28;20039;-74
2022/07/06 06:50:16;;;;;;;3.03;0.30;;;19.50;97.80;;;;;;5028779;28;20040;-77
2022/07/06 06:52:43;;;;;;;2.25;0.30;;;19.60;97.50;;;;;;5016361;28;20052;-77
2022/07/06 06:55:09;;;;;;;1.73;0.25;;;19.70;97.40;;;;;;5013010;28;20037;-77
2022/07/06 06:57:36;;;;;;;1.38;0.25;;;19.70;97.20;;;;;;5015111;28;20040;-77
2022/07/06 07:00:04;;;;;;;0.77;0.30;;;19.70;97.00;;;;;;5031567;28;20043;-77
2022/07/06 07:02:31;;;;;;;3.63;0.50;;;19.70;97.10;;;;;;5015466;28;20499;-76
2022/07/06 07:04:57;;;;;;;3.08;0.45;;;19.70;96.90;;;;;;5033777;28;20048;-77
2022/07/06 07:07:24;;;;;;;2.63;0.32;;;19.80;96.80;;;;;;5032656;28;22822;-77
2022/07/06 07:09:52;;;;;;;2.45;0.50;;;19.80;96.60;;;;;;5032420;28;20471;-77
2022/07/06 07:12:19;;;;;;;1.10;0.25;;;19.70;96.40;;;;;;5024973;28;20187;-77
2022/07/06 07:14:45;;;;;;;1.80;0.30;;;19.70;96.50;;;;;;5030175;28;20033;-82
2022/07/06 07:17:12;;;;;;;1.08;0.30;;;19.80;96.30;;;;;;5031303;28;20566;-84
2022/07/06 07:19:40;;;;;;;3.97;0.40;;;19.90;96.20;;;;;;5028025;28;20029;-82
2022/07/06 07:22:09;;;;;;;1.80;0.20;;;20.00;95.90;;;;;;4995078;28;20036;-82
2022/07/06 07:24:36;;;;;;;1.63;0.20;;;20.10;95.60;;;;;;5030827;28;20033;-77
2022/07/06 07:27:02;;;;;;;2.40;0.22;;;20.20;95.60;;;;;;5030326;28;20033;-77
2022/07/06 07:29:29;;;;;;;2.95;0.40;;;20.40;95.20;;;;;;4992754;28;20043;-77
2022/07/06 07:31:55;;;;;;;3.33;0.77;;;20.60;94.60;;;;;;5027716;28;20036;-77
2022/07/06 07:34:22;;;;;;;1.95;0.40;;;20.70;94.40;;;;;;5029386;28;20968;-77
2022/07/06 07:36:48;;;;;;;4.45;0.40;;;20.90;94.00;;;;;;5011432;28;20942;-74
2022/07/06 07:39:14;;;;;;;1.83;0.30;;;21.00;93.40;;;;;;4993439;28;20021;-79
2022/07/06 07:41:41;;;;;;;2.45;0.30;;;21.10;93.00;;;;;;5011604;28;21439;-79
2022/07/06 07:44:07;;;;;;;3.90;0.40;;;21.10;92.90;;;;;;5028102;28;20032;-75
2022/07/06 07:46:34;;;;;;;0.93;0.20;;;21.40;92.40;;;;;;4993422;28;20048;-75
2022/07/06 07:49:00;;;;;;;1.13;0.20;;;21.50;91.90;;;;;;5010398;28;20028;-75
2022/07/06 07:51:29;;;;;;;3.90;1.27;;;21.50;91.50;;;;;;5022848;28;20036;-76
2022/07/06 07:53:55;;;;;;;3.80;1.70;;;21.60;91.10;;;;;;5012038;28;20412;-75
2022/07/06 07:56:22;;;;;;;1.85;0.80;;;21.80;90.70;;;;;;4998994;28;20035;-78
2022/07/06 07:58:48;;;;;;;3.40;0.32;;;22.00;90.20;;;;;;5011557;28;20052;-75
2022/07/06 08:01:18;;;;;;;1.38;0.30;;;22.20;88.80;;;;;;4989814;28;20404;-75
2022/07/06 08:03:44;;;;;;;1.20;0.30;;;22.30;87.30;;;;;;5030275;28;20033;-76
2022/07/06 08:06:11;;;;;;;0.40;0.17;;;22.50;86.10;;;;;;5025882;28;20040;-75
2022/07/06 08:08:37;;;;;;;1.45;0.20;;;22.70;84.20;;;;;;5028770;28;20020;-75
2022/07/06 08:11:04;;;;;;;1.05;0.20;;;22.80;83.10;;;;;;5006530;28;20040;-75
2022/07/06 08:13:30;;;;;;;2.25;0.20;;;22.80;82.10;;;;;;4993835;28;21104;-74
2022/07/06 08:15:56;;;;;;;0.38;0.20;;;22.70;81.70;;;;;;5029683;28;20033;-77
2022/07/06 08:18:23;;;;;;;0.63;0.20;;;22.50;81.00;;;;;;5011744;28;20480;-78
2022/07/06 08:20:49;;;;;;;0.93;0.20;;;22.40;81.30;;;;;;5022748;28;20047;-75
2022/07/06 08:23:16;;;;;;;1.00;0.20;;;22.30;80.30;;;;;;5010809;28;20033;-75
2022/07/06 08:25:42;;;;;;;0.90;0.20;;;22.40;79.80;;;;;;5012161;28;20542;-75
2022/07/06 08:28:08;;;;;;;1.05;0.10;;;22.50;79.20;;;;;;4986294;28;20035;-75
2022/07/06 08:30:35;;;;;;;1.67;0.10;;;22.60;78.30;;;;;;4994294;28;20048;-75
2022/07/06 08:33:01;;;;;;;0.77;0.13;;;22.60;75.60;;;;;;5026553;28;20045;-75
2022/07/06 08:35:28;;;;;;;0.75;0.20;;;22.40;74.50;;;;;;5026600;28;20172;-83
2022/07/06 08:37:54;;;;;;;1.08;0.20;;;22.10;74.80;;;;;;5028391;28;20033;-83
2022/07/06 08:40:21;;;;;;;1.00;0.38;;;22.00;75.30;;;;;;5028796;28;20036;-81
2022/07/06 08:42:53;;;;;;;1.35;0.20;;;22.20;75.10;;;;;;5028160;28;20033;-82
2022/07/06 08:45:20;;;;;;;1.48;0.17;;;22.30;74.50;;;;;;5028947;28;20052;-80
2022/07/06 08:47:53;;;;;;;1.88;0.20;;;22.60;73.90;;;;;;5033678;28;20677;-80
2022/07/06 08:50:20;;;;;;;1.48;0.20;;;22.90;73.50;;;;;;5010729;28;20032;-81
2022/07/06 08:52:50;;;;;;;0.50;0.20;;;23.30;72.70;;;;;;5033590;28;20037;-82
2022/07/06 08:55:17;;;;;;;0.93;0.15;;;23.60;71.70;;;;;;5028474;28;20043;-81
2022/07/06 08:57:46;;;;;;;0.52;0.20;;;23.70;69.40;;;;;;4996623;28;20040;-81
2022/07/06 09:00:13;;;;;;;0.90;0.20;;;23.60;68.10;;;;;;5023176;28;20036;-82
2022/07/06 09:02:40;;;;;;;1.95;0.40;;;23.40;68.60;;;;;;5027870;28;20024;-81
2022/07/06 09:05:08;;;;;;;1.38;0.20;;;23.20;68.60;;;;;;5027281;28;20032;-81
2022/07/06 09:07:35;;;;;;;1.52;0.22;;;23.00;69.10;;;;;;5028574;28;20044;-81
2022/07/06 09:10:02;;;;;;;0.98;0.13;;;23.00;69.20;;;;;;5025770;28;20691;-81
2022/07/06 09:12:29;;;;;;;2.15;0.30;;;23.10;69.20;;;;;;5027000;28;20041;-81
2022/07/06 09:14:56;;;;;;;0.68;0.22;;;23.40;68.70;;;;;;4996560;28;20045;-81
2022/07/06 09:17:28;;;;;;;1.05;0.30;;;23.80;66.80;;;;;;5032459;28;20024;-82
2022/07/06 09:19:56;;;;;;;;;;;24.00;65.80;;;;;;5029419;28;20048;-83
2022/07/06 09:22:26;;;;;;;;;;;24.20;65.00;;;;;;5030579;28;19959;-80
2022/07/06 09:24:52;;;;;;;;;;;24.20;64.70;;;;;;5035287;28;19916;-83
2022/07/06 09:27:19;;;;;;;;;;;24.20;65.00;;;;;;5042265;28;20046;-82
2022/07/06 09:29:45;;;;;;;;;;;24.00;64.90;;;;;;5036984;28;19965;-82
2022/07/06 09:32:11;;;;;;;;;;;23.80;65.50;;;;;;5036614;28;19916;-82
2022/07/06 09:34:42;;;;;;;;;;;23.50;66.10;;;;;;5022933;28;19922;-81
2022/07/06 09:37:09;;;;;;;;;;;23.30;66.80;;;;;;5021369;28;19917;-81
2022/07/06 09:39:35;;;;;;;;;;;23.00;67.20;;;;;;5036660;28;19916;-81
2022/07/06 09:42:03;;;;;;;;;;;22.90;67.40;;;;;;5036077;28;19920;-81
2022/07/06 09:44:31;;;;;;;;;;;23.00;67.30;;;;;;5038666;28;19916;-82
2022/07/06 09:47:01;;;;;;;;;;;23.30;67.40;;;;;;5037342;28;19920;-82
2022/07/06 09:49:28;;;;;;;;;;;23.60;66.40;;;;;;5037695;28;20272;-82
2022/07/06 09:51:56;;;;;;;;;;;23.80;65.70;;;;;;5037059;28;19931;-82
2022/07/06 09:54:22;;;;;;;;;;;24.00;64.70;;;;;;5020472;28;19951;-82
2022/07/06 09:56:52;;;;;;;;;;;24.30;64.70;;;;;;5037090;28;20556;-83
2022/07/06 09:59:22;;;;;;;;;;;24.50;63.90;;;;;;5036386;28;20372;-83
2022/07/06 10:01:53;;;;;;;;;;;24.50;63.00;;;;;;5034495;28;20291;-83
2022/07/06 10:04:20;;;;;;;;;;;24.50;63.00;;;;;;5028919;28;19916;-82
2022/07/06 10:06:49;;;;;;;;;;;24.30;63.10;;;;;;5034810;28;21172;-82
2022/07/06 10:09:17;;;;;;;;;;;24.30;63.30;;;;;;5036372;28;19923;-82
2022/07/06 10:11:50;;;;;;;;;;;24.30;63.00;;;;;;5013382;28;19920;-74
2022/07/06 10:14:18;;;;;;;;;;;24.50;63.10;;;;;;5028985;28;19921;-74
2022/07/06 10:16:45;;;;;;;;;;;24.50;63.10;;;;;;5010766;28;19920;-74
2022/07/06 10:19:11;;;;;;;;;;;24.50;63.30;;;;;;5030711;28;20304;-75
2022/07/06 10:21:38;;;;;;;;;;;24.40;63.00;;;;;;5027819;28;19924;-74
2022/07/06 10:24:05;;;;;;;;;;;24.40;63.40;;;;;;5030805;28;19919;-74
2022/07/06 10:26:33;;;;;;;;;;;24.60;63.10;;;;;;5029690;28;19917;-73
2022/07/06 10:29:00;;;;;;;;;;;24.60;62.60;;;;;;5028328;28;19913;-73
2022/07/06 10:31:28;;;;;;;;;;;24.50;62.80;;;;;;5027752;28;20298;-73
2022/07/06 10:33:55;;;;;;;;;;;24.20;62.30;;;;;;5030623;28;19928;-73
2022/07/06 10:36:22;;;;;;;;;;;24.10;62.70;;;;;;5029889;28;19917;-74
2022/07/06 10:38:49;;;;;;;;;;;24.20;62.70;;;;;;5000559;28;19912;-74
2022/07/06 10:41:16;;;;;;;;;;;24.60;62.40;;;;;;5011389;28;19916;-74
2022/07/06 10:43:43;;;;;;;;;;;24.90;61.90;;;;;;5031748;28;19943;-75
2022/07/06 10:46:13;;;;;;;;;;;25.30;61.00;;;;;;5027528;28;19939;-75
2022/07/06 10:48:41;;;;;;;;;;;25.70;60.60;;;;;;5030026;28;19913;-75
2022/07/06 10:51:08;;;;;;;;;;;25.90;58.70;;;;;;5023958;28;20595;-75
2022/07/06 10:53:35;;;;;;;;;;;26.00;58.10;;;;;;5029007;28;19927;-75
2022/07/06 10:56:05;;;;;;;;;;;25.90;57.70;;;;;;5029825;28;20284;-75
2022/07/06 10:58:42;;;;;;;;;;;25.90;57.20;;;;;;5030038;28;20403;-75
2022/07/06 11:01:09;;;;;;;;;;;26.00;57.00;;;;;;5007928;28;19920;-75
2022/07/06 11:03:43;;;;;;;;;;;26.30;57.40;;;;;;5028411;28;19916;-75
2022/07/06 11:06:11;;;;;;;;;;;26.80;57.00;;;;;;5027106;28;20380;-75
2022/07/06 11:08:50;;;;;;;;;;;27.20;56.10;;;;;;5044263;28;20374;-75
2022/07/06 11:11:20;;;;;;;;;;;27.40;55.40;;;;;;5024919;28;19912;-75
2022/07/06 11:13:47;;;;;;;;;;;27.50;55.40;;;;;;5026774;28;19975;-75
2022/07/06 11:16:14;;;;;;;;;;;27.40;54.90;;;;;;5030289;28;20603;-76
2022/07/06 11:18:45;;;;;;;;;;;27.20;54.90;;;;;;5008360;28;19923;-75
2022/07/06 11:21:21;;;;;;;;;;;27.00;55.50;;;;;;5024151;28;19919;-75
2022/07/06 11:23:49;;;;;;;;;;;27.20;55.00;;;;;;5010295;28;19913;-75
2022/07/06 11:26:15;;;;;;;;;;;27.40;55.20;;;;;;5027655;28;19913;-75
2022/07/06 11:28:42;;;;;;;;;;;27.90;54.90;;;;;;5030428;28;20257;-75
2022/07/06 11:31:08;;;;;;;;;;;28.40;54.10;;;;;;5024533;28;19917;-75
2022/07/06 11:33:35;;;;;;;;;;;28.90;53.40;;;;;;5029563;28;19920;-75
2022/07/06 11:36:33;;;;;;;;;;;29.30;52.60;;;;;;5027716;28;20299;-75
2022/07/06 11:39:00;;;;;;;;;;;29.20;52.60;;;;;;4985261;28;21041;-75
2022/07/06 11:41:26;;;;;;;;;;;29.60;52.40;;;;;;5026019;28;19923;-74
2022/07/06 11:43:52;;;;;;;;;;;30.00;51.60;;;;;;5029403;28;21100;-75
2022/07/06 11:46:19;;;;;;;;;;;30.50;51.60;;;;;;5028245;28;20390;-75
2022/07/06 11:48:46;;;;;;;;;;;30.60;51.30;;;;;;5031597;28;19912;-75
2022/07/06 11:51:13;;;;;;;;;;;30.80;50.40;;;;;;5026358;28;19924;-75
2022/07/06 11:53:43;;;;;;;;;;;31.00;49.70;;;;;;5031053;28;19927;-75
2022/07/06 11:56:10;;;;;;;;;;;31.40;50.00;;;;;;5032737;28;19933;-75
2022/07/06 11:58:38;;;;;;;;;;;31.80;49.00;;;;;;5032655;28;19916;-75
2022/07/06 12:01:04;;;;;;;;;;;32.30;48.70;;;;;;5027359;28;19919;-75
2022/07/06 12:03:32;;;;;;;;;;;32.10;48.40;;;;;;5033794;28;19923;-82
2022/07/06 12:05:58;;;;;;;;;;;31.50;48.30;;;;;;5034352;28;20161;-82
2022/07/06 12:08:24;;;;;;;;;;;31.10;48.90;;;;;;5032371;28;20603;-81
2022/07/06 12:10:52;;;;;;;;;;;30.80;48.80;;;;;;5027344;28;19916;-83
2022/07/06 12:13:18;;;;;;;;;;;30.40;48.90;;;;;;5035107;28;20489;-81
2022/07/06 12:15:45;;;;;;;;;;;30.30;49.60;;;;;;5034828;28;19928;-83
2022/07/06 12:18:11;;;;;;;;;;;30.50;49.80;;;;;;5031641;28;19911;-82
2022/07/06 12:20:37;;;;;;;;;;;31.10;49.00;;;;;;5028347;28;19917;-82
2022/07/06 12:23:04;;;;;;;;;;;31.20;48.00;;;;;;5030882;28;19943;-82
2022/07/06 12:25:31;;;;;;;;;;;30.80;48.10;;;;;;5035240;28;19943;-82
2022/07/06 12:27:57;;;;;;;;;;;30.90;48.40;;;;;;5031277;28;20624;-81
2022/07/06 12:30:23;;;;;;;;;;;31.30;48.10;;;;;;5009583;28;20283;-81
2022/07/06 12:33:10;;;;;;;;;;;32.00;47.30;;;;;;5032274;28;19939;-81
2022/07/06 12:35:36;;;;;;;;;;;32.70;45.90;;;;;;5033249;28;19917;-81
2022/07/06 12:38:02;;;;;;;;;;;33.30;45.00;;;;;;5014782;28;19924;-81
2022/07/06 12:40:29;;;;;;;;;;;33.20;45.00;;;;;;5008576;28;20880;-81
2022/07/06 12:42:55;;;;;;;;;;;32.50;45.00;;;;;;5031349;28;19916;-80
2022/07/06 12:45:31;;;;;;;;;;;31.70;45.70;;;;;;5030213;28;20003;-81
2022/07/06 12:48:01;;;;;;;;;;;31.20;45.90;;;;;;5029734;28;19999;-81
2022/07/06 12:50:34;;;;;;;;;;;30.80;46.90;;;;;;5009191;28;19913;-82
2022/07/06 12:53:01;;;;;;;;;;;31.20;46.80;;;;;;5013213;28;19920;-82
2022/07/06 12:55:28;;;;;;;;;;;32.20;47.00;;;;;;5031665;28;19909;-81
2022/07/06 12:57:55;;;;;;;;;;;33.50;46.30;;;;;;5028623;28;20406;-82
2022/07/06 13:00:22;;;;;;;;;;;34.40;44.00;;;;;;5028098;28;19920;-82
2022/07/06 13:02:53;;;;;;;;;;;34.30;43.70;;;;;;5032376;28;20364;-81
2022/07/06 13:05:33;;;;;;;;;;;33.60;44.10;;;;;;5030978;28;19913;-80
2022/07/06 13:08:01;;;;;;;;;;;32.60;45.10;;;;;;5043216;28;19936;-80
2022/07/06 13:10:29;;;;;;;;;;;31.60;46.10;;;;;;5026098;28;19905;-80
2022/07/06 13:12:55;;;;;;;;;;;30.70;46.80;;;;;;5029824;28;19917;-80
2022/07/06 13:15:22;;;;;;;;;;;30.00;47.50;;;;;;5030250;28;19909;-80
2022/07/06 13:17:48;;;;;;;;;;;29.70;48.00;;;;;;5031754;28;20265;-80
2022/07/06 13:20:16;;;;;;;;;;;30.10;48.00;;;;;;5014386;28;19909;-80